Aeroporto :
LOGIN :

Iscrizione | Disclaimer

   EN    FR    IT 

 










Sommario :    VFR   VFR Marginale   IFR   IFR Intensivo   IFR Molto Intensivo
Visibilità : 
Base nubi : 
>= 8 km
>= 3000ft
5 / 8 km
1000 / 3000 ft
1500m / 5 km
500 / 1000 ft
800 / 1500m
200 / 500 ft
< 800m
< 200 ft
Simboli :   Temporali  Nebbia  Neve Forte  Precipitazioni Forti  Vento > 20 kt
SIGMETs :   Varie  Temporali  Ghiacco  Turbolenza  Onda orograficha  Ceneri Vulcaniche






- Altitudine del aeroporto : 2897 ft
- Codice IATA : USQ


LTBO - U?ak

ULTIMO METAR :
  • 300950Z 11006KT 9999 SCT040 BKN100 10/02 Q1012

METARs OBSOLETI :
  • 300850Z 20005KT 130V250 9999 SCT040 BKN100 09/03 Q1013
  • 300750Z 13004KT 080V180 9999 SCT040 10/04 Q1012

TAF TAF LTBO
Valido dal 30 a 09 ore il 30 a 18 ore UTC


300740Z 3009/3018 VRB02KT 9999 SCT035 BKN100



MetMap, La meteo Aeronautica in un colpo d'occhio ! - Copyright ORBIFLY Dicembre 2007 - Disclaimer

ORBIFLY MET'MAP TEAM :

Programmazione e sviluppo : Alexandra Zaïnal
Concezione : Baudouin d'Aumeries
Aiuto per la programmazione : Marc-Olivier Méhu
Supporto tecnico e logistico : Manuel Goepfert
Aiuto per la traduzione : Arnaldo La Scala

Contatto : metmap@orbifly.com




FONTI E CREDITI :

   NOAA